EGLM weather

White Waltham Airfield
Maidenhead, England, United Kingdom

Public forecast

Using degrees Celsius for public forecast. Weather courtesy of forecast.io.

METAR (pilot weather report)

Closest report is London Heathrow Airport, 11.8 nm (21.9 km) E. Retrieved 2019/03/23 09:50 UTC (18 minutes ago):

EGLL 230950Z AUTO 03007KT 350V060 9999 OVC036 11/02 Q1032 NOSIG

TAF (pilot weather forecast)

Closest forecast is London Heathrow Airport, 11.8 nm (21.9 km) E. Retrieved 2019/03/23 06:15 UTC (4 hours ago):

TAF EGLL 230505Z 2306/2412 31005KT 9999 SCT025 PROB40 TEMPO 2306/2310 7000 -RADZ BKN014 BECMG 2307/2310 02010KT BECMG 2319/2322 08005KT PROB30 TEMPO 2403/2407 8000 BECMG 2409/2412 34010KT